sensor_id;sensor_type;location;lat;lon;timestamp;P1;durP1;ratioP1;P2;durP2;ratioP2
69754;SDS011;57023;52.218;5.158;2024-03-07T00:00:11;55.55;;;23.90;;
69754;SDS011;57023;52.218;5.158;2024-03-07T00:02:42;57.35;;;24.35;;
69754;SDS011;57023;52.218;5.158;2024-03-07T00:05:12;61.85;;;24.33;;
69754;SDS011;57023;52.218;5.158;2024-03-07T00:07:38;59.42;;;24.33;;
69754;SDS011;57023;52.218;5.158;2024-03-07T00:10:03;62.70;;;26.23;;
69754;SDS011;57023;52.218;5.158;2024-03-07T00:12:32;62.53;;;24.15;;
69754;SDS011;57023;52.218;5.158;2024-03-07T00:14:57;67.07;;;26.20;;
69754;SDS011;57023;52.218;5.158;2024-03-07T00:17:23;58.92;;;24.48;;
69754;SDS011;57023;52.218;5.158;2024-03-07T00:19:51;61.75;;;25.88;;
69754;SDS011;57023;52.218;5.158;2024-03-07T00:22:16;59.42;;;25.27;;
69754;SDS011;57023;52.218;5.158;2024-03-07T00:24:44;59.38;;;24.73;;
69754;SDS011;57023;52.218;5.158;2024-03-07T00:27:12;66.70;;;24.85;;
69754;SDS011;57023;52.218;5.158;2024-03-07T00:29:39;61.47;;;24.85;;
69754;SDS011;57023;52.218;5.158;2024-03-07T00:32:04;62.90;;;25.33;;
69754;SDS011;57023;52.218;5.158;2024-03-07T00:34:30;60.70;;;24.83;;
69754;SDS011;57023;52.218;5.158;2024-03-07T00:36:55;64.43;;;25.48;;
69754;SDS011;57023;52.218;5.158;2024-03-07T00:39:22;62.08;;;26.08;;
69754;SDS011;57023;52.218;5.158;2024-03-07T00:41:49;62.90;;;25.70;;
69754;SDS011;57023;52.218;5.158;2024-03-07T00:44:14;67.28;;;25.25;;
69754;SDS011;57023;52.218;5.158;2024-03-07T00:46:39;60.50;;;25.95;;
69754;SDS011;57023;52.218;5.158;2024-03-07T00:49:04;66.47;;;26.73;;
69754;SDS011;57023;52.218;5.158;2024-03-07T00:51:33;64.63;;;25.85;;
69754;SDS011;57023;52.218;5.158;2024-03-07T00:53:58;68.35;;;26.80;;
69754;SDS011;57023;52.218;5.158;2024-03-07T00:56:26;67.47;;;26.77;;
69754;SDS011;57023;52.218;5.158;2024-03-07T00:58:53;67.72;;;26.63;;
69754;SDS011;57023;52.218;5.158;2024-03-07T01:01:18;65.63;;;25.30;;
69754;SDS011;57023;52.218;5.158;2024-03-07T01:03:44;64.15;;;25.70;;
69754;SDS011;57023;52.218;5.158;2024-03-07T01:06:10;65.22;;;26.83;;
69754;SDS011;57023;52.218;5.158;2024-03-07T01:08:35;63.80;;;25.38;;
69754;SDS011;57023;52.218;5.158;2024-03-07T01:11:02;74.40;;;26.90;;
69754;SDS011;57023;52.218;5.158;2024-03-07T01:13:37;70.20;;;27.67;;
69754;SDS011;57023;52.218;5.158;2024-03-07T01:16:03;60.50;;;25.98;;
69754;SDS011;57023;52.218;5.158;2024-03-07T01:18:28;65.13;;;26.83;;
69754;SDS011;57023;52.218;5.158;2024-03-07T01:20:54;70.32;;;27.17;;
69754;SDS011;57023;52.218;5.158;2024-03-07T01:23:19;66.95;;;25.83;;
69754;SDS011;57023;52.218;5.158;2024-03-07T01:25:45;71.05;;;27.27;;
69754;SDS011;57023;52.218;5.158;2024-03-07T01:28:10;63.83;;;27.10;;
69754;SDS011;57023;52.218;5.158;2024-03-07T01:30:37;69.45;;;26.83;;
69754;SDS011;57023;52.218;5.158;2024-03-07T01:33:03;67.93;;;26.83;;
69754;SDS011;57023;52.218;5.158;2024-03-07T01:35:28;75.55;;;29.17;;
69754;SDS011;57023;52.218;5.158;2024-03-07T01:37:54;67.63;;;27.67;;
69754;SDS011;57023;52.218;5.158;2024-03-07T01:40:19;64.50;;;26.48;;
69754;SDS011;57023;52.218;5.158;2024-03-07T01:42:46;68.00;;;26.92;;
69754;SDS011;57023;52.218;5.158;2024-03-07T01:45:13;70.00;;;27.23;;
69754;SDS011;57023;52.218;5.158;2024-03-07T01:47:38;71.93;;;27.02;;
69754;SDS011;57023;52.218;5.158;2024-03-07T01:50:04;72.30;;;27.58;;
69754;SDS011;57023;52.218;5.158;2024-03-07T01:52:30;70.30;;;27.63;;
69754;SDS011;57023;52.218;5.158;2024-03-07T01:54:56;64.82;;;25.42;;
69754;SDS011;57023;52.218;5.158;2024-03-07T01:57:21;69.68;;;27.65;;
69754;SDS011;57023;52.218;5.158;2024-03-07T01:59:47;71.75;;;27.77;;
69754;SDS011;57023;52.218;5.158;2024-03-07T02:02:12;64.47;;;26.45;;
69754;SDS011;57023;52.218;5.158;2024-03-07T02:04:37;71.60;;;27.63;;
69754;SDS011;57023;52.218;5.158;2024-03-07T02:07:03;71.43;;;27.35;;
69754;SDS011;57023;52.218;5.158;2024-03-07T02:09:28;65.00;;;26.48;;
69754;SDS011;57023;52.218;5.158;2024-03-07T02:11:54;69.53;;;28.23;;
69754;SDS011;57023;52.218;5.158;2024-03-07T02:14:19;72.30;;;27.10;;
69754;SDS011;57023;52.218;5.158;2024-03-07T02:16:44;73.35;;;28.30;;
69754;SDS011;57023;52.218;5.158;2024-03-07T02:19:11;73.53;;;27.08;;
69754;SDS011;57023;52.218;5.158;2024-03-07T02:21:39;70.63;;;26.23;;
69754;SDS011;57023;52.218;5.158;2024-03-07T02:24:04;68.53;;;26.80;;
69754;SDS011;57023;52.218;5.158;2024-03-07T02:26:29;66.50;;;26.60;;
69754;SDS011;57023;52.218;5.158;2024-03-07T02:28:55;69.97;;;27.20;;
69754;SDS011;57023;52.218;5.158;2024-03-07T02:31:20;72.70;;;27.95;;
69754;SDS011;57023;52.218;5.158;2024-03-07T02:33:53;70.82;;;27.23;;
69754;SDS011;57023;52.218;5.158;2024-03-07T02:36:18;71.28;;;27.52;;
69754;SDS011;57023;52.218;5.158;2024-03-07T02:38:43;71.60;;;28.17;;
69754;SDS011;57023;52.218;5.158;2024-03-07T02:41:09;72.80;;;26.50;;
69754;SDS011;57023;52.218;5.158;2024-03-07T02:43:34;70.68;;;27.75;;
69754;SDS011;57023;52.218;5.158;2024-03-07T02:46:02;70.28;;;26.95;;
69754;SDS011;57023;52.218;5.158;2024-03-07T02:48:28;70.40;;;26.15;;
69754;SDS011;57023;52.218;5.158;2024-03-07T02:50:54;73.20;;;27.42;;
69754;SDS011;57023;52.218;5.158;2024-03-07T02:53:20;72.47;;;27.75;;
69754;SDS011;57023;52.218;5.158;2024-03-07T02:55:45;71.88;;;28.25;;
69754;SDS011;57023;52.218;5.158;2024-03-07T02:58:10;78.68;;;30.25;;
69754;SDS011;57023;52.218;5.158;2024-03-07T03:00:35;72.60;;;27.48;;
69754;SDS011;57023;52.218;5.158;2024-03-07T03:03:01;67.38;;;26.98;;
69754;SDS011;57023;52.218;5.158;2024-03-07T03:05:26;67.82;;;26.77;;
69754;SDS011;57023;52.218;5.158;2024-03-07T03:07:51;70.93;;;26.98;;
69754;SDS011;57023;52.218;5.158;2024-03-07T03:10:23;71.38;;;27.45;;
69754;SDS011;57023;52.218;5.158;2024-03-07T03:12:54;67.63;;;27.40;;
69754;SDS011;57023;52.218;5.158;2024-03-07T03:15:22;72.60;;;28.42;;
69754;SDS011;57023;52.218;5.158;2024-03-07T03:17:48;66.95;;;26.52;;
69754;SDS011;57023;52.218;5.158;2024-03-07T03:20:13;69.15;;;27.50;;
69754;SDS011;57023;52.218;5.158;2024-03-07T03:22:53;68.65;;;26.55;;
69754;SDS011;57023;52.218;5.158;2024-03-07T03:25:22;69.47;;;27.15;;
69754;SDS011;57023;52.218;5.158;2024-03-07T03:27:54;67.10;;;26.52;;
69754;SDS011;57023;52.218;5.158;2024-03-07T03:30:23;68.93;;;26.55;;
69754;SDS011;57023;52.218;5.158;2024-03-07T03:32:49;69.45;;;27.10;;
69754;SDS011;57023;52.218;5.158;2024-03-07T03:35:14;71.82;;;27.25;;
69754;SDS011;57023;52.218;5.158;2024-03-07T03:37:41;67.32;;;26.52;;
69754;SDS011;57023;52.218;5.158;2024-03-07T03:40:09;70.10;;;26.83;;
69754;SDS011;57023;52.218;5.158;2024-03-07T03:42:38;65.25;;;27.15;;
69754;SDS011;57023;52.218;5.158;2024-03-07T03:45:05;73.22;;;28.48;;
69754;SDS011;57023;52.218;5.158;2024-03-07T03:47:35;72.28;;;28.02;;
69754;SDS011;57023;52.218;5.158;2024-03-07T03:50:02;67.68;;;26.90;;
69754;SDS011;57023;52.218;5.158;2024-03-07T03:52:28;71.65;;;27.48;;
69754;SDS011;57023;52.218;5.158;2024-03-07T03:54:54;64.97;;;27.00;;
69754;SDS011;57023;52.218;5.158;2024-03-07T03:57:19;67.47;;;27.15;;
69754;SDS011;57023;52.218;5.158;2024-03-07T03:59:44;70.57;;;27.50;;
69754;SDS011;57023;52.218;5.158;2024-03-07T04:02:10;73.13;;;27.67;;
69754;SDS011;57023;52.218;5.158;2024-03-07T04:04:38;75.75;;;28.48;;
69754;SDS011;57023;52.218;5.158;2024-03-07T04:07:04;70.95;;;27.95;;
69754;SDS011;57023;52.218;5.158;2024-03-07T04:09:29;73.05;;;27.85;;
69754;SDS011;57023;52.218;5.158;2024-03-07T04:11:55;70.35;;;27.48;;
69754;SDS011;57023;52.218;5.158;2024-03-07T04:14:20;73.43;;;29.35;;
69754;SDS011;57023;52.218;5.158;2024-03-07T04:16:45;70.15;;;28.08;;
69754;SDS011;57023;52.218;5.158;2024-03-07T04:19:10;71.07;;;27.63;;
69754;SDS011;57023;52.218;5.158;2024-03-07T04:21:36;72.53;;;28.38;;
69754;SDS011;57023;52.218;5.158;2024-03-07T04:24:02;75.50;;;27.70;;
69754;SDS011;57023;52.218;5.158;2024-03-07T04:26:28;72.40;;;27.90;;
69754;SDS011;57023;52.218;5.158;2024-03-07T04:28:56;78.38;;;30.73;;
69754;SDS011;57023;52.218;5.158;2024-03-07T04:31:23;77.88;;;28.92;;
69754;SDS011;57023;52.218;5.158;2024-03-07T04:33:48;73.57;;;28.75;;
69754;SDS011;57023;52.218;5.158;2024-03-07T04:36:13;77.30;;;29.23;;
69754;SDS011;57023;52.218;5.158;2024-03-07T04:38:39;78.45;;;28.85;;
69754;SDS011;57023;52.218;5.158;2024-03-07T04:43:32;73.50;;;28.55;;
69754;SDS011;57023;52.218;5.158;2024-03-07T04:45:58;72.35;;;26.58;;
69754;SDS011;57023;52.218;5.158;2024-03-07T04:48:23;79.30;;;28.90;;
69754;SDS011;57023;52.218;5.158;2024-03-07T04:50:48;77.32;;;28.70;;
69754;SDS011;57023;52.218;5.158;2024-03-07T04:53:14;76.80;;;27.92;;
69754;SDS011;57023;52.218;5.158;2024-03-07T04:55:39;79.60;;;28.08;;
69754;SDS011;57023;52.218;5.158;2024-03-07T04:58:04;76.05;;;29.65;;
69754;SDS011;57023;52.218;5.158;2024-03-07T05:00:30;78.28;;;28.65;;
69754;SDS011;57023;52.218;5.158;2024-03-07T05:02:55;75.43;;;28.52;;
69754;SDS011;57023;52.218;5.158;2024-03-07T05:05:21;80.15;;;29.30;;
69754;SDS011;57023;52.218;5.158;2024-03-07T05:07:48;75.63;;;28.38;;
69754;SDS011;57023;52.218;5.158;2024-03-07T05:10:15;77.55;;;29.95;;
69754;SDS011;57023;52.218;5.158;2024-03-07T05:12:40;70.70;;;28.42;;
69754;SDS011;57023;52.218;5.158;2024-03-07T05:15:08;73.38;;;29.35;;
69754;SDS011;57023;52.218;5.158;2024-03-07T05:17:43;75.28;;;27.90;;
69754;SDS011;57023;52.218;5.158;2024-03-07T05:20:08;77.65;;;29.80;;
69754;SDS011;57023;52.218;5.158;2024-03-07T05:22:37;76.03;;;29.48;;
69754;SDS011;57023;52.218;5.158;2024-03-07T05:25:09;74.60;;;28.88;;
69754;SDS011;57023;52.218;5.158;2024-03-07T05:27:34;85.28;;;30.33;;
69754;SDS011;57023;52.218;5.158;2024-03-07T05:30:01;78.18;;;29.73;;
69754;SDS011;57023;52.218;5.158;2024-03-07T05:32:28;78.83;;;28.50;;
69754;SDS011;57023;52.218;5.158;2024-03-07T05:34:53;78.38;;;28.95;;
69754;SDS011;57023;52.218;5.158;2024-03-07T05:37:19;78.22;;;30.52;;
69754;SDS011;57023;52.218;5.158;2024-03-07T05:39:48;83.95;;;30.30;;
69754;SDS011;57023;52.218;5.158;2024-03-07T05:42:17;78.93;;;27.92;;
69754;SDS011;57023;52.218;5.158;2024-03-07T05:44:42;79.57;;;29.65;;
69754;SDS011;57023;52.218;5.158;2024-03-07T05:47:07;77.10;;;29.67;;
69754;SDS011;57023;52.218;5.158;2024-03-07T05:49:34;74.75;;;29.35;;
69754;SDS011;57023;52.218;5.158;2024-03-07T05:51:59;74.00;;;30.00;;
69754;SDS011;57023;52.218;5.158;2024-03-07T05:54:25;74.28;;;28.42;;
69754;SDS011;57023;52.218;5.158;2024-03-07T05:56:50;74.28;;;28.65;;
69754;SDS011;57023;52.218;5.158;2024-03-07T05:59:15;79.63;;;30.02;;
69754;SDS011;57023;52.218;5.158;2024-03-07T06:01:42;85.72;;;30.35;;
69754;SDS011;57023;52.218;5.158;2024-03-07T06:04:07;75.65;;;29.45;;
69754;SDS011;57023;52.218;5.158;2024-03-07T06:06:35;77.55;;;30.13;;
69754;SDS011;57023;52.218;5.158;2024-03-07T06:09:01;81.05;;;29.58;;
69754;SDS011;57023;52.218;5.158;2024-03-07T06:11:34;79.80;;;30.83;;
69754;SDS011;57023;52.218;5.158;2024-03-07T06:14:00;78.73;;;30.97;;
69754;SDS011;57023;52.218;5.158;2024-03-07T06:16:27;78.80;;;29.75;;
69754;SDS011;57023;52.218;5.158;2024-03-07T06:18:53;80.68;;;30.85;;
69754;SDS011;57023;52.218;5.158;2024-03-07T06:21:19;74.55;;;30.33;;
69754;SDS011;57023;52.218;5.158;2024-03-07T06:23:45;84.05;;;31.27;;
69754;SDS011;57023;52.218;5.158;2024-03-07T06:26:13;79.68;;;30.02;;
69754;SDS011;57023;52.218;5.158;2024-03-07T06:28:41;74.18;;;28.48;;
69754;SDS011;57023;52.218;5.158;2024-03-07T06:31:07;70.38;;;29.00;;
69754;SDS011;57023;52.218;5.158;2024-03-07T06:33:34;82.30;;;30.15;;
69754;SDS011;57023;52.218;5.158;2024-03-07T06:36:00;72.65;;;28.58;;
69754;SDS011;57023;52.218;5.158;2024-03-07T06:38:28;78.50;;;31.10;;
69754;SDS011;57023;52.218;5.158;2024-03-07T06:40:53;74.13;;;29.20;;
69754;SDS011;57023;52.218;5.158;2024-03-07T06:43:18;73.45;;;28.52;;
69754;SDS011;57023;52.218;5.158;2024-03-07T06:45:44;77.88;;;32.50;;
69754;SDS011;57023;52.218;5.158;2024-03-07T06:48:11;75.18;;;30.90;;
69754;SDS011;57023;52.218;5.158;2024-03-07T06:50:37;70.27;;;29.47;;
69754;SDS011;57023;52.218;5.158;2024-03-07T06:53:03;66.65;;;27.17;;
69754;SDS011;57023;52.218;5.158;2024-03-07T06:55:31;77.00;;;29.98;;
69754;SDS011;57023;52.218;5.158;2024-03-07T06:57:58;72.60;;;29.40;;
69754;SDS011;57023;52.218;5.158;2024-03-07T07:00:24;73.65;;;28.92;;
69754;SDS011;57023;52.218;5.158;2024-03-07T07:02:51;75.18;;;29.38;;
69754;SDS011;57023;52.218;5.158;2024-03-07T07:05:18;64.35;;;27.65;;
69754;SDS011;57023;52.218;5.158;2024-03-07T07:07:46;67.90;;;26.65;;
69754;SDS011;57023;52.218;5.158;2024-03-07T07:10:12;67.57;;;28.95;;
69754;SDS011;57023;52.218;5.158;2024-03-07T07:12:43;75.28;;;28.60;;
69754;SDS011;57023;52.218;5.158;2024-03-07T07:15:10;62.75;;;26.85;;
69754;SDS011;57023;52.218;5.158;2024-03-07T07:17:36;64.63;;;26.25;;
69754;SDS011;57023;52.218;5.158;2024-03-07T07:20:01;64.53;;;27.10;;
69754;SDS011;57023;52.218;5.158;2024-03-07T07:22:35;66.47;;;27.98;;
69754;SDS011;57023;52.218;5.158;2024-03-07T07:25:04;67.70;;;28.77;;
69754;SDS011;57023;52.218;5.158;2024-03-07T07:27:31;62.85;;;26.13;;
69754;SDS011;57023;52.218;5.158;2024-03-07T07:29:57;66.32;;;25.50;;
69754;SDS011;57023;52.218;5.158;2024-03-07T07:32:22;56.15;;;25.60;;
69754;SDS011;57023;52.218;5.158;2024-03-07T07:34:48;58.50;;;25.80;;
69754;SDS011;57023;52.218;5.158;2024-03-07T07:37:14;58.70;;;25.33;;
69754;SDS011;57023;52.218;5.158;2024-03-07T07:39:39;56.97;;;25.25;;
69754;SDS011;57023;52.218;5.158;2024-03-07T07:42:04;53.42;;;22.58;;
69754;SDS011;57023;52.218;5.158;2024-03-07T07:44:29;54.92;;;24.77;;
69754;SDS011;57023;52.218;5.158;2024-03-07T07:46:55;54.53;;;24.20;;
69754;SDS011;57023;52.218;5.158;2024-03-07T07:49:20;45.55;;;21.35;;
69754;SDS011;57023;52.218;5.158;2024-03-07T07:51:45;53.28;;;23.98;;
69754;SDS011;57023;52.218;5.158;2024-03-07T07:54:13;54.80;;;24.17;;
69754;SDS011;57023;52.218;5.158;2024-03-07T07:56:38;54.78;;;24.65;;
69754;SDS011;57023;52.218;5.158;2024-03-07T07:59:04;50.42;;;22.85;;
69754;SDS011;57023;52.218;5.158;2024-03-07T08:01:29;49.58;;;23.67;;
69754;SDS011;57023;52.218;5.158;2024-03-07T08:03:54;51.55;;;22.98;;
69754;SDS011;57023;52.218;5.158;2024-03-07T08:06:20;48.95;;;23.50;;
69754;SDS011;57023;52.218;5.158;2024-03-07T08:08:45;52.17;;;22.65;;
69754;SDS011;57023;52.218;5.158;2024-03-07T08:11:11;48.85;;;23.00;;
69754;SDS011;57023;52.218;5.158;2024-03-07T08:13:39;46.42;;;23.55;;
69754;SDS011;57023;52.218;5.158;2024-03-07T08:16:05;48.67;;;22.75;;
69754;SDS011;57023;52.218;5.158;2024-03-07T08:18:30;48.65;;;22.75;;
69754;SDS011;57023;52.218;5.158;2024-03-07T08:20:55;46.33;;;23.08;;
69754;SDS011;57023;52.218;5.158;2024-03-07T08:23:21;48.33;;;23.52;;
69754;SDS011;57023;52.218;5.158;2024-03-07T08:25:50;44.10;;;22.13;;
69754;SDS011;57023;52.218;5.158;2024-03-07T08:28:15;38.08;;;19.23;;
69754;SDS011;57023;52.218;5.158;2024-03-07T08:30:43;40.45;;;20.80;;
69754;SDS011;57023;52.218;5.158;2024-03-07T08:33:09;42.65;;;21.08;;
69754;SDS011;57023;52.218;5.158;2024-03-07T08:35:34;43.08;;;20.58;;
69754;SDS011;57023;52.218;5.158;2024-03-07T08:38:00;42.20;;;20.65;;
69754;SDS011;57023;52.218;5.158;2024-03-07T08:40:25;40.53;;;20.33;;
69754;SDS011;57023;52.218;5.158;2024-03-07T08:42:56;37.72;;;18.95;;
69754;SDS011;57023;52.218;5.158;2024-03-07T08:45:22;40.25;;;20.08;;
69754;SDS011;57023;52.218;5.158;2024-03-07T08:47:48;39.35;;;19.55;;
69754;SDS011;57023;52.218;5.158;2024-03-07T08:50:15;40.97;;;20.58;;
69754;SDS011;57023;52.218;5.158;2024-03-07T08:52:43;35.05;;;18.45;;
69754;SDS011;57023;52.218;5.158;2024-03-07T08:55:09;33.95;;;17.27;;
69754;SDS011;57023;52.218;5.158;2024-03-07T08:57:35;34.05;;;17.95;;
69754;SDS011;57023;52.218;5.158;2024-03-07T09:00:04;34.28;;;17.48;;
69754;SDS011;57023;52.218;5.158;2024-03-07T09:02:36;32.80;;;18.40;;
69754;SDS011;57023;52.218;5.158;2024-03-07T09:05:03;37.20;;;19.45;;
69754;SDS011;57023;52.218;5.158;2024-03-07T09:07:29;33.95;;;18.77;;
69754;SDS011;57023;52.218;5.158;2024-03-07T09:09:57;31.48;;;16.02;;
69754;SDS011;57023;52.218;5.158;2024-03-07T09:12:22;35.33;;;18.88;;
69754;SDS011;57023;52.218;5.158;2024-03-07T09:17:15;34.60;;;18.13;;
69754;SDS011;57023;52.218;5.158;2024-03-07T09:19:41;32.25;;;18.00;;
69754;SDS011;57023;52.218;5.158;2024-03-07T09:22:06;28.58;;;17.30;;
69754;SDS011;57023;52.218;5.158;2024-03-07T09:24:33;31.52;;;18.23;;
69754;SDS011;57023;52.218;5.158;2024-03-07T09:26:59;29.25;;;17.27;;
69754;SDS011;57023;52.218;5.158;2024-03-07T09:29:25;28.17;;;16.45;;
69754;SDS011;57023;52.218;5.158;2024-03-07T09:31:51;33.40;;;17.17;;
69754;SDS011;57023;52.218;5.158;2024-03-07T09:34:17;30.00;;;17.17;;
69754;SDS011;57023;52.218;5.158;2024-03-07T09:36:43;25.35;;;15.10;;
69754;SDS011;57023;52.218;5.158;2024-03-07T09:39:09;23.13;;;13.77;;
69754;SDS011;57023;52.218;5.158;2024-03-07T09:41:34;28.05;;;16.40;;
69754;SDS011;57023;52.218;5.158;2024-03-07T09:44:00;24.67;;;14.18;;
69754;SDS011;57023;52.218;5.158;2024-03-07T09:46:26;25.63;;;14.95;;
69754;SDS011;57023;52.218;5.158;2024-03-07T09:48:51;21.15;;;13.60;;
69754;SDS011;57023;52.218;5.158;2024-03-07T09:51:19;25.67;;;14.65;;
69754;SDS011;57023;52.218;5.158;2024-03-07T09:53:45;24.25;;;15.02;;
69754;SDS011;57023;52.218;5.158;2024-03-07T09:56:12;21.30;;;13.27;;
69754;SDS011;57023;52.218;5.158;2024-03-07T09:58:39;21.38;;;12.98;;
69754;SDS011;57023;52.218;5.158;2024-03-07T10:01:05;22.30;;;13.27;;
69754;SDS011;57023;52.218;5.158;2024-03-07T10:03:34;22.05;;;13.88;;
69754;SDS011;57023;52.218;5.158;2024-03-07T10:06:00;20.23;;;12.20;;
69754;SDS011;57023;52.218;5.158;2024-03-07T10:08:25;22.88;;;13.48;;
69754;SDS011;57023;52.218;5.158;2024-03-07T10:10:52;19.80;;;12.55;;
69754;SDS011;57023;52.218;5.158;2024-03-07T10:13:19;22.83;;;12.98;;
69754;SDS011;57023;52.218;5.158;2024-03-07T10:15:47;21.08;;;12.43;;
69754;SDS011;57023;52.218;5.158;2024-03-07T10:18:13;19.65;;;12.65;;
69754;SDS011;57023;52.218;5.158;2024-03-07T10:20:39;18.52;;;11.35;;
69754;SDS011;57023;52.218;5.158;2024-03-07T10:23:04;24.48;;;12.90;;
69754;SDS011;57023;52.218;5.158;2024-03-07T10:25:32;21.30;;;12.50;;
69754;SDS011;57023;52.218;5.158;2024-03-07T10:28:02;21.75;;;12.80;;
69754;SDS011;57023;52.218;5.158;2024-03-07T10:30:29;22.40;;;12.55;;
69754;SDS011;57023;52.218;5.158;2024-03-07T10:32:57;22.00;;;12.60;;
69754;SDS011;57023;52.218;5.158;2024-03-07T10:35:24;20.67;;;12.25;;
69754;SDS011;57023;52.218;5.158;2024-03-07T10:37:53;18.88;;;11.20;;
69754;SDS011;57023;52.218;5.158;2024-03-07T10:40:24;22.20;;;12.45;;
69754;SDS011;57023;52.218;5.158;2024-03-07T10:42:51;20.17;;;12.20;;
69754;SDS011;57023;52.218;5.158;2024-03-07T10:45:21;20.80;;;12.32;;
69754;SDS011;57023;52.218;5.158;2024-03-07T10:47:53;24.45;;;13.55;;
69754;SDS011;57023;52.218;5.158;2024-03-07T10:50:56;22.67;;;13.32;;
69754;SDS011;57023;52.218;5.158;2024-03-07T10:53:44;21.27;;;12.85;;
69754;SDS011;57023;52.218;5.158;2024-03-07T10:59:25;21.17;;;12.75;;
69754;SDS011;57023;52.218;5.158;2024-03-07T11:04:41;26.00;;;14.50;;
69754;SDS011;57023;52.218;5.158;2024-03-07T11:07:06;22.42;;;12.88;;
69754;SDS011;57023;52.218;5.158;2024-03-07T11:09:32;22.00;;;12.38;;
69754;SDS011;57023;52.218;5.158;2024-03-07T11:11:59;23.50;;;14.48;;
69754;SDS011;57023;52.218;5.158;2024-03-07T11:14:28;22.60;;;13.05;;
69754;SDS011;57023;52.218;5.158;2024-03-07T11:16:54;18.98;;;11.55;;
69754;SDS011;57023;52.218;5.158;2024-03-07T11:21:52;21.67;;;13.68;;
69754;SDS011;57023;52.218;5.158;2024-03-07T11:24:24;20.30;;;12.18;;
69754;SDS011;57023;52.218;5.158;2024-03-07T11:27:02;20.90;;;12.45;;
69754;SDS011;57023;52.218;5.158;2024-03-07T11:32:00;22.58;;;13.23;;
69754;SDS011;57023;52.218;5.158;2024-03-07T11:34:32;21.60;;;13.48;;
69754;SDS011;57023;52.218;5.158;2024-03-07T11:36:57;21.45;;;13.57;;
69754;SDS011;57023;52.218;5.158;2024-03-07T11:39:40;22.13;;;13.73;;
69754;SDS011;57023;52.218;5.158;2024-03-07T11:42:07;23.27;;;13.57;;
69754;SDS011;57023;52.218;5.158;2024-03-07T11:44:33;21.25;;;13.20;;
69754;SDS011;57023;52.218;5.158;2024-03-07T11:47:04;21.38;;;12.90;;
69754;SDS011;57023;52.218;5.158;2024-03-07T11:49:34;22.98;;;13.60;;
69754;SDS011;57023;52.218;5.158;2024-03-07T11:52:01;20.50;;;13.88;;
69754;SDS011;57023;52.218;5.158;2024-03-07T11:54:29;19.40;;;11.95;;
69754;SDS011;57023;52.218;5.158;2024-03-07T11:56:56;21.10;;;13.97;;
69754;SDS011;57023;52.218;5.158;2024-03-07T11:59:22;19.10;;;12.90;;
69754;SDS011;57023;52.218;5.158;2024-03-07T12:01:51;21.55;;;14.55;;
69754;SDS011;57023;52.218;5.158;2024-03-07T12:04:16;21.30;;;14.20;;
69754;SDS011;57023;52.218;5.158;2024-03-07T12:06:50;22.60;;;14.13;;
69754;SDS011;57023;52.218;5.158;2024-03-07T12:09:16;23.60;;;14.05;;
69754;SDS011;57023;52.218;5.158;2024-03-07T12:11:48;24.23;;;14.10;;
69754;SDS011;57023;52.218;5.158;2024-03-07T12:14:17;23.00;;;14.63;;
69754;SDS011;57023;52.218;5.158;2024-03-07T12:16:46;31.08;;;18.58;;
69754;SDS011;57023;52.218;5.158;2024-03-07T12:19:12;19.67;;;14.20;;
69754;SDS011;57023;52.218;5.158;2024-03-07T12:21:37;23.52;;;15.10;;
69754;SDS011;57023;52.218;5.158;2024-03-07T12:24:13;21.45;;;14.48;;
69754;SDS011;57023;52.218;5.158;2024-03-07T12:26:40;19.97;;;14.13;;
69754;SDS011;57023;52.218;5.158;2024-03-07T12:29:10;21.90;;;13.40;;
69754;SDS011;57023;52.218;5.158;2024-03-07T12:31:37;22.42;;;14.40;;
69754;SDS011;57023;52.218;5.158;2024-03-07T12:34:08;23.95;;;13.63;;
69754;SDS011;57023;52.218;5.158;2024-03-07T12:36:37;19.92;;;13.02;;
69754;SDS011;57023;52.218;5.158;2024-03-07T12:39:24;19.75;;;13.73;;
69754;SDS011;57023;52.218;5.158;2024-03-07T12:42:00;21.15;;;15.00;;
69754;SDS011;57023;52.218;5.158;2024-03-07T12:44:50;21.90;;;14.23;;
69754;SDS011;57023;52.218;5.158;2024-03-07T12:47:15;22.45;;;13.85;;
69754;SDS011;57023;52.218;5.158;2024-03-07T12:49:44;19.40;;;13.00;;
69754;SDS011;57023;52.218;5.158;2024-03-07T12:52:10;23.38;;;13.50;;
69754;SDS011;57023;52.218;5.158;2024-03-07T12:54:40;20.08;;;14.45;;
69754;SDS011;57023;52.218;5.158;2024-03-07T12:57:12;20.67;;;14.23;;
69754;SDS011;57023;52.218;5.158;2024-03-07T12:59:40;18.75;;;13.32;;
69754;SDS011;57023;52.218;5.158;2024-03-07T13:02:06;18.88;;;13.25;;
69754;SDS011;57023;52.218;5.158;2024-03-07T13:04:35;19.08;;;13.63;;
69754;SDS011;57023;52.218;5.158;2024-03-07T13:07:04;19.58;;;12.95;;
69754;SDS011;57023;52.218;5.158;2024-03-07T13:09:30;18.07;;;13.43;;
69754;SDS011;57023;52.218;5.158;2024-03-07T13:11:56;16.90;;;12.52;;
69754;SDS011;57023;52.218;5.158;2024-03-07T13:14:22;18.33;;;13.32;;
69754;SDS011;57023;52.218;5.158;2024-03-07T13:16:47;18.52;;;13.13;;
69754;SDS011;57023;52.218;5.158;2024-03-07T13:19:12;19.07;;;14.07;;
69754;SDS011;57023;52.218;5.158;2024-03-07T13:21:39;18.98;;;13.30;;
69754;SDS011;57023;52.218;5.158;2024-03-07T13:24:05;18.77;;;13.45;;
69754;SDS011;57023;52.218;5.158;2024-03-07T13:26:31;17.87;;;12.50;;
69754;SDS011;57023;52.218;5.158;2024-03-07T13:28:56;17.77;;;13.00;;
69754;SDS011;57023;52.218;5.158;2024-03-07T13:31:26;16.55;;;12.57;;
69754;SDS011;57023;52.218;5.158;2024-03-07T13:33:52;17.73;;;12.97;;
69754;SDS011;57023;52.218;5.158;2024-03-07T13:36:18;19.10;;;13.15;;
69754;SDS011;57023;52.218;5.158;2024-03-07T13:38:50;18.80;;;12.60;;
69754;SDS011;57023;52.218;5.158;2024-03-07T13:41:18;16.05;;;11.90;;
69754;SDS011;57023;52.218;5.158;2024-03-07T13:43:44;17.60;;;12.30;;
69754;SDS011;57023;52.218;5.158;2024-03-07T13:46:10;19.10;;;12.63;;
69754;SDS011;57023;52.218;5.158;2024-03-07T13:51:02;17.47;;;13.37;;
69754;SDS011;57023;52.218;5.158;2024-03-07T13:53:32;18.15;;;13.32;;
69754;SDS011;57023;52.218;5.158;2024-03-07T13:56:19;16.73;;;12.45;;
69754;SDS011;57023;52.218;5.158;2024-03-07T13:59:07;17.08;;;13.10;;
69754;SDS011;57023;52.218;5.158;2024-03-07T14:07:31;18.05;;;13.60;;
69754;SDS011;57023;52.218;5.158;2024-03-07T14:10:21;18.10;;;13.85;;
69754;SDS011;57023;52.218;5.158;2024-03-07T14:13:22;16.73;;;13.40;;
69754;SDS011;57023;52.218;5.158;2024-03-07T14:16:05;18.88;;;13.98;;
69754;SDS011;57023;52.218;5.158;2024-03-07T14:33:09;23.90;;;13.82;;
69754;SDS011;57023;52.218;5.158;2024-03-07T14:38:49;19.65;;;13.52;;
69754;SDS011;57023;52.218;5.158;2024-03-07T14:41:17;20.27;;;14.07;;
69754;SDS011;57023;52.218;5.158;2024-03-07T14:46:09;21.73;;;12.50;;
69754;SDS011;57023;52.218;5.158;2024-03-07T14:48:37;18.73;;;12.07;;
69754;SDS011;57023;52.218;5.158;2024-03-07T14:51:03;20.42;;;12.00;;
69754;SDS011;57023;52.218;5.158;2024-03-07T14:53:29;19.20;;;13.20;;
69754;SDS011;57023;52.218;5.158;2024-03-07T14:55:56;19.65;;;12.70;;
69754;SDS011;57023;52.218;5.158;2024-03-07T14:58:21;19.55;;;12.45;;
69754;SDS011;57023;52.218;5.158;2024-03-07T15:00:47;17.55;;;11.00;;
69754;SDS011;57023;52.218;5.158;2024-03-07T15:03:15;17.05;;;10.68;;
69754;SDS011;57023;52.218;5.158;2024-03-07T15:05:42;18.42;;;11.63;;